sensor_id;sensor_type;location;lat;lon;timestamp;temperature;humidity
21275;DHT22;36472;52.170;20.884;2024-02-26T00:00:28;27.80;36.30
21275;DHT22;36472;52.170;20.884;2024-02-26T00:03:18;27.80;36.40
21275;DHT22;36472;52.170;20.884;2024-02-26T00:05:47;27.80;36.20
21275;DHT22;36472;52.170;20.884;2024-02-26T00:08:16;27.70;36.20
21275;DHT22;36472;52.170;20.884;2024-02-26T00:10:45;27.70;36.20
21275;DHT22;36472;52.170;20.884;2024-02-26T00:13:16;27.70;36.30
21275;DHT22;36472;52.170;20.884;2024-02-26T00:15:45;27.70;36.30
21275;DHT22;36472;52.170;20.884;2024-02-26T00:18:14;27.70;36.20
21275;DHT22;36472;52.170;20.884;2024-02-26T00:20:43;27.70;36.10
21275;DHT22;36472;52.170;20.884;2024-02-26T00:23:15;27.60;36.10
21275;DHT22;36472;52.170;20.884;2024-02-26T00:25:44;27.60;36.10
21275;DHT22;36472;52.170;20.884;2024-02-26T00:28:13;27.60;36.00
21275;DHT22;36472;52.170;20.884;2024-02-26T00:30:43;27.50;36.10
21275;DHT22;36472;52.170;20.884;2024-02-26T00:33:13;27.50;36.30
21275;DHT22;36472;52.170;20.884;2024-02-26T00:35:43;27.50;36.30
21275;DHT22;36472;52.170;20.884;2024-02-26T00:38:13;27.50;36.90
21275;DHT22;36472;52.170;20.884;2024-02-26T00:40:42;27.50;37.70
21275;DHT22;36472;52.170;20.884;2024-02-26T00:43:11;27.50;37.50
21275;DHT22;36472;52.170;20.884;2024-02-26T00:45:40;27.50;37.40
21275;DHT22;36472;52.170;20.884;2024-02-26T00:48:11;27.50;37.30
21275;DHT22;36472;52.170;20.884;2024-02-26T00:50:41;27.50;37.40
21275;DHT22;36472;52.170;20.884;2024-02-26T00:53:10;27.50;37.30
21275;DHT22;36472;52.170;20.884;2024-02-26T00:55:39;27.60;37.40
21275;DHT22;36472;52.170;20.884;2024-02-26T00:58:09;27.60;37.60
21275;DHT22;36472;52.170;20.884;2024-02-26T01:00:38;27.60;37.60
21275;DHT22;36472;52.170;20.884;2024-02-26T01:03:07;27.70;37.00
21275;DHT22;36472;52.170;20.884;2024-02-26T01:05:39;27.70;37.10
21275;DHT22;36472;52.170;20.884;2024-02-26T01:08:08;27.70;37.20
21275;DHT22;36472;52.170;20.884;2024-02-26T01:10:37;27.80;36.60
21275;DHT22;36472;52.170;20.884;2024-02-26T01:13:07;27.70;36.60
21275;DHT22;36472;52.170;20.884;2024-02-26T01:15:36;27.70;36.50
21275;DHT22;36472;52.170;20.884;2024-02-26T01:18:05;27.70;36.30
21275;DHT22;36472;52.170;20.884;2024-02-26T01:20:34;27.70;36.30
21275;DHT22;36472;52.170;20.884;2024-02-26T01:23:04;27.60;36.20
21275;DHT22;36472;52.170;20.884;2024-02-26T01:25:33;27.60;36.20
21275;DHT22;36472;52.170;20.884;2024-02-26T01:28:03;27.50;36.10
21275;DHT22;36472;52.170;20.884;2024-02-26T01:30:32;27.50;36.30
21275;DHT22;36472;52.170;20.884;2024-02-26T01:33:02;27.50;36.20
21275;DHT22;36472;52.170;20.884;2024-02-26T01:35:31;27.40;36.20
21275;DHT22;36472;52.170;20.884;2024-02-26T01:37:59;27.40;36.20
21275;DHT22;36472;52.170;20.884;2024-02-26T01:40:29;27.40;36.20
21275;DHT22;36472;52.170;20.884;2024-02-26T01:42:59;27.40;36.20
21275;DHT22;36472;52.170;20.884;2024-02-26T01:45:28;27.40;36.40
21275;DHT22;36472;52.170;20.884;2024-02-26T01:47:57;27.40;37.10
21275;DHT22;36472;52.170;20.884;2024-02-26T01:50:27;27.40;36.40
21275;DHT22;36472;52.170;20.884;2024-02-26T01:52:57;27.40;36.00
21275;DHT22;36472;52.170;20.884;2024-02-26T01:55:26;27.30;36.90
21275;DHT22;36472;52.170;20.884;2024-02-26T01:57:57;27.30;36.20
21275;DHT22;36472;52.170;20.884;2024-02-26T02:00:27;27.30;36.20
21275;DHT22;36472;52.170;20.884;2024-02-26T02:02:56;27.30;36.20
21275;DHT22;36472;52.170;20.884;2024-02-26T02:05:26;27.30;36.30
21275;DHT22;36472;52.170;20.884;2024-02-26T02:07:55;27.30;36.20
21275;DHT22;36472;52.170;20.884;2024-02-26T02:10:27;27.30;36.10
21275;DHT22;36472;52.170;20.884;2024-02-26T02:12:57;27.20;35.90
21275;DHT22;36472;52.170;20.884;2024-02-26T02:15:25;27.20;35.80
21275;DHT22;36472;52.170;20.884;2024-02-26T02:17:55;27.20;36.00
21275;DHT22;36472;52.170;20.884;2024-02-26T02:20:26;27.20;36.10
21275;DHT22;36472;52.170;20.884;2024-02-26T02:23:02;27.20;36.00
21275;DHT22;36472;52.170;20.884;2024-02-26T02:25:31;27.10;35.80
21275;DHT22;36472;52.170;20.884;2024-02-26T02:28:01;27.10;35.80
21275;DHT22;36472;52.170;20.884;2024-02-26T02:30:31;27.00;35.70
21275;DHT22;36472;52.170;20.884;2024-02-26T02:33:01;27.00;35.80
21275;DHT22;36472;52.170;20.884;2024-02-26T02:35:32;27.00;35.80
21275;DHT22;36472;52.170;20.884;2024-02-26T02:38:02;26.90;35.70
21275;DHT22;36472;52.170;20.884;2024-02-26T02:40:31;26.90;35.90
21275;DHT22;36472;52.170;20.884;2024-02-26T02:43:01;26.90;36.00
21275;DHT22;36472;52.170;20.884;2024-02-26T02:45:30;26.90;36.00
21275;DHT22;36472;52.170;20.884;2024-02-26T02:47:59;26.90;36.10
21275;DHT22;36472;52.170;20.884;2024-02-26T02:50:28;26.90;36.20
21275;DHT22;36472;52.170;20.884;2024-02-26T02:52:58;26.90;36.10
21275;DHT22;36472;52.170;20.884;2024-02-26T02:55:28;26.90;35.80
21275;DHT22;36472;52.170;20.884;2024-02-26T02:57:57;26.80;35.80
21275;DHT22;36472;52.170;20.884;2024-02-26T03:00:26;26.80;35.70
21275;DHT22;36472;52.170;20.884;2024-02-26T03:02:56;26.80;35.70
21275;DHT22;36472;52.170;20.884;2024-02-26T03:05:25;26.80;35.70
21275;DHT22;36472;52.170;20.884;2024-02-26T03:07:54;26.80;35.90
21275;DHT22;36472;52.170;20.884;2024-02-26T03:10:24;26.80;36.30
21275;DHT22;36472;52.170;20.884;2024-02-26T03:12:54;26.80;36.20
21275;DHT22;36472;52.170;20.884;2024-02-26T03:15:23;26.80;36.30
21275;DHT22;36472;52.170;20.884;2024-02-26T03:17:53;26.80;36.20
21275;DHT22;36472;52.170;20.884;2024-02-26T03:20:22;26.70;36.00
21275;DHT22;36472;52.170;20.884;2024-02-26T03:22:51;26.70;36.10
21275;DHT22;36472;52.170;20.884;2024-02-26T03:25:19;26.70;35.90
21275;DHT22;36472;52.170;20.884;2024-02-26T03:27:50;26.70;35.90
21275;DHT22;36472;52.170;20.884;2024-02-26T03:30:19;26.70;36.00
21275;DHT22;36472;52.170;20.884;2024-02-26T03:32:48;26.60;36.10
21275;DHT22;36472;52.170;20.884;2024-02-26T03:35:17;26.70;36.00
21275;DHT22;36472;52.170;20.884;2024-02-26T03:37:46;26.60;36.10
21275;DHT22;36472;52.170;20.884;2024-02-26T03:40:17;26.60;36.10
21275;DHT22;36472;52.170;20.884;2024-02-26T03:42:47;26.70;36.20
21275;DHT22;36472;52.170;20.884;2024-02-26T03:45:17;26.60;36.30
21275;DHT22;36472;52.170;20.884;2024-02-26T03:47:46;26.70;36.40
21275;DHT22;36472;52.170;20.884;2024-02-26T03:50:16;26.60;36.40
21275;DHT22;36472;52.170;20.884;2024-02-26T03:52:45;26.60;36.20
21275;DHT22;36472;52.170;20.884;2024-02-26T03:55:14;26.70;36.40
21275;DHT22;36472;52.170;20.884;2024-02-26T03:57:43;26.70;36.60
21275;DHT22;36472;52.170;20.884;2024-02-26T04:00:13;26.60;37.10
21275;DHT22;36472;52.170;20.884;2024-02-26T04:02:44;26.70;37.50
21275;DHT22;36472;52.170;20.884;2024-02-26T04:05:13;26.70;37.40
21275;DHT22;36472;52.170;20.884;2024-02-26T04:07:42;26.80;37.50
21275;DHT22;36472;52.170;20.884;2024-02-26T04:10:12;26.80;37.60
21275;DHT22;36472;52.170;20.884;2024-02-26T04:12:42;26.80;37.50
21275;DHT22;36472;52.170;20.884;2024-02-26T04:15:11;26.90;38.20
21275;DHT22;36472;52.170;20.884;2024-02-26T04:17:41;27.00;38.00
21275;DHT22;36472;52.170;20.884;2024-02-26T04:20:14;27.00;38.10
21275;DHT22;36472;52.170;20.884;2024-02-26T04:22:45;27.00;37.20
21275;DHT22;36472;52.170;20.884;2024-02-26T04:25:14;27.10;37.00
21275;DHT22;36472;52.170;20.884;2024-02-26T04:27:43;27.10;37.20
21275;DHT22;36472;52.170;20.884;2024-02-26T04:30:12;27.10;36.90
21275;DHT22;36472;52.170;20.884;2024-02-26T04:32:42;27.10;36.80
21275;DHT22;36472;52.170;20.884;2024-02-26T04:35:12;27.10;37.30
21275;DHT22;36472;52.170;20.884;2024-02-26T04:37:41;27.10;36.60
21275;DHT22;36472;52.170;20.884;2024-02-26T04:40:11;27.10;36.60
21275;DHT22;36472;52.170;20.884;2024-02-26T04:42:40;27.10;37.50
21275;DHT22;36472;52.170;20.884;2024-02-26T04:45:09;27.10;37.00
21275;DHT22;36472;52.170;20.884;2024-02-26T04:47:38;27.10;36.50
21275;DHT22;36472;52.170;20.884;2024-02-26T04:50:08;27.10;36.50
21275;DHT22;36472;52.170;20.884;2024-02-26T04:52:39;27.10;36.50
21275;DHT22;36472;52.170;20.884;2024-02-26T04:55:08;27.10;36.50
21275;DHT22;36472;52.170;20.884;2024-02-26T04:57:37;27.10;36.50
21275;DHT22;36472;52.170;20.884;2024-02-26T05:00:07;27.10;37.00
21275;DHT22;36472;52.170;20.884;2024-02-26T05:02:37;27.10;36.70
21275;DHT22;36472;52.170;20.884;2024-02-26T05:05:07;27.10;37.30
21275;DHT22;36472;52.170;20.884;2024-02-26T05:07:41;27.10;36.90
21275;DHT22;36472;52.170;20.884;2024-02-26T05:10:11;27.10;37.20
21275;DHT22;36472;52.170;20.884;2024-02-26T05:12:40;27.00;36.90
21275;DHT22;36472;52.170;20.884;2024-02-26T05:15:10;27.00;37.10
21275;DHT22;36472;52.170;20.884;2024-02-26T05:17:46;27.00;37.10
21275;DHT22;36472;52.170;20.884;2024-02-26T05:20:15;27.00;37.20
21275;DHT22;36472;52.170;20.884;2024-02-26T05:22:45;27.10;37.30
21275;DHT22;36472;52.170;20.884;2024-02-26T05:25:15;27.10;37.60
21275;DHT22;36472;52.170;20.884;2024-02-26T05:27:45;27.10;37.60
21275;DHT22;36472;52.170;20.884;2024-02-26T05:30:14;27.10;37.60
21275;DHT22;36472;52.170;20.884;2024-02-26T05:32:44;27.10;37.60
21275;DHT22;36472;52.170;20.884;2024-02-26T05:35:13;27.20;37.50
21275;DHT22;36472;52.170;20.884;2024-02-26T05:37:42;27.20;37.50
21275;DHT22;36472;52.170;20.884;2024-02-26T05:40:13;27.30;37.50
21275;DHT22;36472;52.170;20.884;2024-02-26T05:42:44;27.30;37.60
21275;DHT22;36472;52.170;20.884;2024-02-26T05:45:13;27.30;37.60
21275;DHT22;36472;52.170;20.884;2024-02-26T05:47:42;27.40;37.70
21275;DHT22;36472;52.170;20.884;2024-02-26T05:50:12;27.40;37.70
21275;DHT22;36472;52.170;20.884;2024-02-26T05:52:43;27.40;37.70
21275;DHT22;36472;52.170;20.884;2024-02-26T05:55:13;27.40;37.60
21275;DHT22;36472;52.170;20.884;2024-02-26T05:57:42;27.40;37.60
21275;DHT22;36472;52.170;20.884;2024-02-26T06:00:12;27.50;37.70
21275;DHT22;36472;52.170;20.884;2024-02-26T06:02:42;27.50;37.60
21275;DHT22;36472;52.170;20.884;2024-02-26T06:05:11;27.50;37.60
21275;DHT22;36472;52.170;20.884;2024-02-26T06:07:40;27.60;37.90
21275;DHT22;36472;52.170;20.884;2024-02-26T06:10:10;27.60;37.70
21275;DHT22;36472;52.170;20.884;2024-02-26T06:12:42;27.60;37.80
21275;DHT22;36472;52.170;20.884;2024-02-26T06:15:11;27.60;37.90
21275;DHT22;36472;52.170;20.884;2024-02-26T06:17:41;27.70;37.90
21275;DHT22;36472;52.170;20.884;2024-02-26T06:20:11;27.60;37.80
21275;DHT22;36472;52.170;20.884;2024-02-26T06:22:41;27.70;37.90
21275;DHT22;36472;52.170;20.884;2024-02-26T06:25:10;27.70;37.90
21275;DHT22;36472;52.170;20.884;2024-02-26T06:27:39;27.80;38.00
21275;DHT22;36472;52.170;20.884;2024-02-26T06:30:11;27.80;38.10
21275;DHT22;36472;52.170;20.884;2024-02-26T06:32:40;27.80;38.20
21275;DHT22;36472;52.170;20.884;2024-02-26T06:35:09;27.80;38.20
21275;DHT22;36472;52.170;20.884;2024-02-26T06:37:39;27.90;38.40
21275;DHT22;36472;52.170;20.884;2024-02-26T06:40:09;27.90;38.30
21275;DHT22;36472;52.170;20.884;2024-02-26T06:42:38;28.00;38.40
21275;DHT22;36472;52.170;20.884;2024-02-26T06:45:08;28.00;38.20
21275;DHT22;36472;52.170;20.884;2024-02-26T06:47:38;28.10;38.30
21275;DHT22;36472;52.170;20.884;2024-02-26T06:50:08;28.10;38.40
21275;DHT22;36472;52.170;20.884;2024-02-26T06:52:40;28.20;38.60
21275;DHT22;36472;52.170;20.884;2024-02-26T06:55:09;28.20;38.80
21275;DHT22;36472;52.170;20.884;2024-02-26T06:57:38;28.30;38.90
21275;DHT22;36472;52.170;20.884;2024-02-26T07:00:08;28.30;39.10
21275;DHT22;36472;52.170;20.884;2024-02-26T07:02:42;28.40;39.30
21275;DHT22;36472;52.170;20.884;2024-02-26T07:05:11;28.50;39.30
21275;DHT22;36472;52.170;20.884;2024-02-26T07:07:41;28.60;39.20
21275;DHT22;36472;52.170;20.884;2024-02-26T07:10:10;28.60;39.10
21275;DHT22;36472;52.170;20.884;2024-02-26T07:12:40;28.70;39.30
21275;DHT22;36472;52.170;20.884;2024-02-26T07:15:11;28.70;39.30
21275;DHT22;36472;52.170;20.884;2024-02-26T07:17:40;28.80;39.60
21275;DHT22;36472;52.170;20.884;2024-02-26T07:20:14;28.80;39.50
21275;DHT22;36472;52.170;20.884;2024-02-26T07:22:45;28.80;39.60
21275;DHT22;36472;52.170;20.884;2024-02-26T07:25:15;28.90;39.60
21275;DHT22;36472;52.170;20.884;2024-02-26T07:27:44;29.00;40.20
21275;DHT22;36472;52.170;20.884;2024-02-26T07:30:15;29.10;39.50
21275;DHT22;36472;52.170;20.884;2024-02-26T07:32:45;29.20;39.30
21275;DHT22;36472;52.170;20.884;2024-02-26T07:35:18;29.30;39.20
21275;DHT22;36472;52.170;20.884;2024-02-26T07:37:48;29.40;39.30
21275;DHT22;36472;52.170;20.884;2024-02-26T07:40:18;29.40;39.10
21275;DHT22;36472;52.170;20.884;2024-02-26T07:42:47;29.40;38.90
21275;DHT22;36472;52.170;20.884;2024-02-26T07:45:17;29.50;39.40
21275;DHT22;36472;52.170;20.884;2024-02-26T07:47:48;29.60;39.30
21275;DHT22;36472;52.170;20.884;2024-02-26T07:50:19;29.60;39.30
21275;DHT22;36472;52.170;20.884;2024-02-26T07:52:48;29.70;39.10
21275;DHT22;36472;52.170;20.884;2024-02-26T07:55:18;29.70;39.10
21275;DHT22;36472;52.170;20.884;2024-02-26T07:57:48;29.90;39.40
21275;DHT22;36472;52.170;20.884;2024-02-26T08:00:19;30.00;39.30
21275;DHT22;36472;52.170;20.884;2024-02-26T08:02:48;30.10;38.90
21275;DHT22;36472;52.170;20.884;2024-02-26T08:05:18;30.20;39.00
21275;DHT22;36472;52.170;20.884;2024-02-26T08:07:47;30.30;38.80
21275;DHT22;36472;52.170;20.884;2024-02-26T08:10:16;30.40;38.90
21275;DHT22;36472;52.170;20.884;2024-02-26T08:12:46;30.40;38.50
21275;DHT22;36472;52.170;20.884;2024-02-26T08:15:15;30.40;38.50
21275;DHT22;36472;52.170;20.884;2024-02-26T08:17:45;30.50;38.90
21275;DHT22;36472;52.170;20.884;2024-02-26T08:20:15;30.60;39.00
21275;DHT22;36472;52.170;20.884;2024-02-26T08:22:44;30.70;39.10
21275;DHT22;36472;52.170;20.884;2024-02-26T08:25:13;30.80;38.60
21275;DHT22;36472;52.170;20.884;2024-02-26T08:27:43;30.80;38.70
21275;DHT22;36472;52.170;20.884;2024-02-26T08:30:13;31.00;38.80
21275;DHT22;36472;52.170;20.884;2024-02-26T08:32:47;30.90;38.40
21275;DHT22;36472;52.170;20.884;2024-02-26T08:35:19;31.00;38.80
21275;DHT22;36472;52.170;20.884;2024-02-26T08:37:48;31.00;38.70
21275;DHT22;36472;52.170;20.884;2024-02-26T08:40:17;31.10;39.00
21275;DHT22;36472;52.170;20.884;2024-02-26T08:42:47;31.20;39.00
21275;DHT22;36472;52.170;20.884;2024-02-26T08:45:16;31.30;39.30
21275;DHT22;36472;52.170;20.884;2024-02-26T08:47:47;31.40;39.10
21275;DHT22;36472;52.170;20.884;2024-02-26T08:50:17;31.40;38.90
21275;DHT22;36472;52.170;20.884;2024-02-26T08:52:46;31.50;38.90
21275;DHT22;36472;52.170;20.884;2024-02-26T08:55:18;31.60;39.00
21275;DHT22;36472;52.170;20.884;2024-02-26T08:57:47;31.60;38.90
21275;DHT22;36472;52.170;20.884;2024-02-26T09:00:17;31.60;38.90
21275;DHT22;36472;52.170;20.884;2024-02-26T09:02:49;31.80;39.10
21275;DHT22;36472;52.170;20.884;2024-02-26T09:05:18;32.00;39.10
21275;DHT22;36472;52.170;20.884;2024-02-26T09:07:48;32.00;38.90
21275;DHT22;36472;52.170;20.884;2024-02-26T09:10:19;32.00;38.40
21275;DHT22;36472;52.170;20.884;2024-02-26T09:12:48;32.20;38.60
21275;DHT22;36472;52.170;20.884;2024-02-26T09:15:17;32.20;38.50
21275;DHT22;36472;52.170;20.884;2024-02-26T09:17:46;32.00;38.40
21275;DHT22;36472;52.170;20.884;2024-02-26T09:20:19;32.10;38.80
21275;DHT22;36472;52.170;20.884;2024-02-26T09:22:49;32.10;38.50
21275;DHT22;36472;52.170;20.884;2024-02-26T09:25:19;32.30;38.70
21275;DHT22;36472;52.170;20.884;2024-02-26T09:27:48;32.40;38.90
21275;DHT22;36472;52.170;20.884;2024-02-26T09:30:18;32.50;38.70
21275;DHT22;36472;52.170;20.884;2024-02-26T09:32:47;32.60;38.60
21275;DHT22;36472;52.170;20.884;2024-02-26T09:35:16;32.70;38.80
21275;DHT22;36472;52.170;20.884;2024-02-26T09:37:48;32.90;38.30
21275;DHT22;36472;52.170;20.884;2024-02-26T09:40:17;33.10;37.80
21275;DHT22;36472;52.170;20.884;2024-02-26T09:42:46;33.20;37.40
21275;DHT22;36472;52.170;20.884;2024-02-26T09:45:18;33.30;37.30
21275;DHT22;36472;52.170;20.884;2024-02-26T09:47:50;33.30;37.60
21275;DHT22;36472;52.170;20.884;2024-02-26T09:50:22;33.30;37.30
21275;DHT22;36472;52.170;20.884;2024-02-26T09:52:52;33.40;37.30
21275;DHT22;36472;52.170;20.884;2024-02-26T09:55:25;33.40;37.30
21275;DHT22;36472;52.170;20.884;2024-02-26T09:57:55;33.50;37.20
21275;DHT22;36472;52.170;20.884;2024-02-26T10:00:27;33.70;37.50
21275;DHT22;36472;52.170;20.884;2024-02-26T10:03:03;33.70;36.80
21275;DHT22;36472;52.170;20.884;2024-02-26T10:05:37;33.60;37.00
21275;DHT22;36472;52.170;20.884;2024-02-26T10:08:08;33.60;36.60
21275;DHT22;36472;52.170;20.884;2024-02-26T10:10:40;33.60;37.00
21275;DHT22;36472;52.170;20.884;2024-02-26T10:13:10;33.40;36.40
21275;DHT22;36472;52.170;20.884;2024-02-26T10:15:39;33.50;37.10
21275;DHT22;36472;52.170;20.884;2024-02-26T10:18:08;33.40;36.80
21275;DHT22;36472;52.170;20.884;2024-02-26T10:20:39;33.40;36.90
21275;DHT22;36472;52.170;20.884;2024-02-26T10:23:08;33.40;36.80
21275;DHT22;36472;52.170;20.884;2024-02-26T10:25:37;33.20;36.70
21275;DHT22;36472;52.170;20.884;2024-02-26T10:28:21;33.10;36.90
21275;DHT22;36472;52.170;20.884;2024-02-26T10:30:51;32.50;37.30
21275;DHT22;36472;52.170;20.884;2024-02-26T10:33:22;32.40;37.80
21275;DHT22;36472;52.170;20.884;2024-02-26T10:35:54;32.40;38.00
21275;DHT22;36472;52.170;20.884;2024-02-26T10:38:23;32.40;38.00
21275;DHT22;36472;52.170;20.884;2024-02-26T10:40:52;32.30;37.90
21275;DHT22;36472;52.170;20.884;2024-02-26T10:43:22;32.40;38.00
21275;DHT22;36472;52.170;20.884;2024-02-26T10:45:51;32.40;37.80
21275;DHT22;36472;52.170;20.884;2024-02-26T10:48:21;32.40;38.10
21275;DHT22;36472;52.170;20.884;2024-02-26T10:50:51;32.40;38.30
21275;DHT22;36472;52.170;20.884;2024-02-26T10:53:22;32.30;38.30
21275;DHT22;36472;52.170;20.884;2024-02-26T10:55:54;32.30;38.60
21275;DHT22;36472;52.170;20.884;2024-02-26T10:58:27;32.00;38.30
21275;DHT22;36472;52.170;20.884;2024-02-26T11:00:57;32.00;38.70
21275;DHT22;36472;52.170;20.884;2024-02-26T11:03:28;32.00;38.70
21275;DHT22;36472;52.170;20.884;2024-02-26T11:06:05;32.00;38.70
21275;DHT22;36472;52.170;20.884;2024-02-26T11:08:35;32.00;39.00
21275;DHT22;36472;52.170;20.884;2024-02-26T11:11:05;31.90;38.60
21275;DHT22;36472;52.170;20.884;2024-02-26T11:13:36;31.90;38.80
21275;DHT22;36472;52.170;20.884;2024-02-26T11:16:11;32.00;38.80
21275;DHT22;36472;52.170;20.884;2024-02-26T11:18:42;32.00;38.60
21275;DHT22;36472;52.170;20.884;2024-02-26T11:21:15;32.00;38.70
21275;DHT22;36472;52.170;20.884;2024-02-26T11:23:46;32.00;38.50
21275;DHT22;36472;52.170;20.884;2024-02-26T11:26:16;31.90;38.60
21275;DHT22;36472;52.170;20.884;2024-02-26T11:28:47;31.90;38.40
21275;DHT22;36472;52.170;20.884;2024-02-26T11:31:18;31.80;38.60
21275;DHT22;36472;52.170;20.884;2024-02-26T11:33:54;31.80;38.80
21275;DHT22;36472;52.170;20.884;2024-02-26T11:36:26;31.80;38.80
21275;DHT22;36472;52.170;20.884;2024-02-26T11:38:56;31.80;39.00
21275;DHT22;36472;52.170;20.884;2024-02-26T11:41:26;31.90;38.60
21275;DHT22;36472;52.170;20.884;2024-02-26T11:43:59;32.10;38.20
21275;DHT22;36472;52.170;20.884;2024-02-26T11:46:30;32.30;37.90
21275;DHT22;36472;52.170;20.884;2024-02-26T11:49:01;32.60;37.40
21275;DHT22;36472;52.170;20.884;2024-02-26T11:51:34;32.90;37.10
21275;DHT22;36472;52.170;20.884;2024-02-26T11:54:04;33.10;36.60
21275;DHT22;36472;52.170;20.884;2024-02-26T11:56:34;33.40;36.70
21275;DHT22;36472;52.170;20.884;2024-02-26T11:59:04;33.60;36.70
21275;DHT22;36472;52.170;20.884;2024-02-26T12:01:44;33.90;36.00
21275;DHT22;36472;52.170;20.884;2024-02-26T12:04:18;34.20;35.50
21275;DHT22;36472;52.170;20.884;2024-02-26T12:06:52;34.40;34.80
21275;DHT22;36472;52.170;20.884;2024-02-26T12:09:35;34.50;34.50
21275;DHT22;36472;52.170;20.884;2024-02-26T12:12:06;34.80;34.20
21275;DHT22;36472;52.170;20.884;2024-02-26T12:14:40;34.90;34.20
21275;DHT22;36472;52.170;20.884;2024-02-26T12:17:21;35.30;33.80
21275;DHT22;36472;52.170;20.884;2024-02-26T12:19:52;35.60;33.40
21275;DHT22;36472;52.170;20.884;2024-02-26T12:22:25;35.90;33.00
21275;DHT22;36472;52.170;20.884;2024-02-26T12:24:58;36.10;33.20
21275;DHT22;36472;52.170;20.884;2024-02-26T12:27:28;36.20;32.40
21275;DHT22;36472;52.170;20.884;2024-02-26T12:29:58;36.40;32.50
21275;DHT22;36472;52.170;20.884;2024-02-26T12:32:27;36.60;32.30
21275;DHT22;36472;52.170;20.884;2024-02-26T12:34:56;36.50;31.50
21275;DHT22;36472;52.170;20.884;2024-02-26T12:37:29;36.20;32.00
21275;DHT22;36472;52.170;20.884;2024-02-26T12:39:58;36.20;32.40
21275;DHT22;36472;52.170;20.884;2024-02-26T12:42:27;36.10;32.20
21275;DHT22;36472;52.170;20.884;2024-02-26T12:44:57;35.80;32.50
21275;DHT22;36472;52.170;20.884;2024-02-26T12:47:27;35.60;33.10
21275;DHT22;36472;52.170;20.884;2024-02-26T12:49:57;35.30;33.50
21275;DHT22;36472;52.170;20.884;2024-02-26T12:52:26;35.10;33.90
21275;DHT22;36472;52.170;20.884;2024-02-26T12:54:57;34.90;34.40
21275;DHT22;36472;52.170;20.884;2024-02-26T12:57:26;34.70;34.20
21275;DHT22;36472;52.170;20.884;2024-02-26T12:59:58;34.40;33.80
21275;DHT22;36472;52.170;20.884;2024-02-26T13:02:28;34.20;34.50
21275;DHT22;36472;52.170;20.884;2024-02-26T13:04:57;33.90;34.40
21275;DHT22;36472;52.170;20.884;2024-02-26T13:07:29;33.90;34.80
21275;DHT22;36472;52.170;20.884;2024-02-26T13:09:59;33.80;35.00
21275;DHT22;36472;52.170;20.884;2024-02-26T13:12:29;33.80;35.20
21275;DHT22;36472;52.170;20.884;2024-02-26T13:14:59;33.70;35.50
21275;DHT22;36472;52.170;20.884;2024-02-26T13:17:31;33.70;35.30
21275;DHT22;36472;52.170;20.884;2024-02-26T13:20:02;33.70;35.30
21275;DHT22;36472;52.170;20.884;2024-02-26T13:22:32;33.70;35.50
21275;DHT22;36472;52.170;20.884;2024-02-26T13:25:05;33.70;35.50
21275;DHT22;36472;52.170;20.884;2024-02-26T13:27:35;33.60;35.40
21275;DHT22;36472;52.170;20.884;2024-02-26T13:30:08;33.60;35.20
21275;DHT22;36472;52.170;20.884;2024-02-26T13:32:40;33.60;35.20
21275;DHT22;36472;52.170;20.884;2024-02-26T13:39:43;33.50;35.50
21275;DHT22;36472;52.170;20.884;2024-02-26T13:46:44;33.60;35.50
21275;DHT22;36472;52.170;20.884;2024-02-26T13:49:13;33.60;35.50
21275;DHT22;36472;52.170;20.884;2024-02-26T13:51:43;33.50;35.30
21275;DHT22;36472;52.170;20.884;2024-02-26T13:58:45;33.40;35.20
21275;DHT22;36472;52.170;20.884;2024-02-26T14:01:14;33.50;35.00
21275;DHT22;36472;52.170;20.884;2024-02-26T14:03:45;33.40;34.70
21275;DHT22;36472;52.170;20.884;2024-02-26T14:06:14;33.40;34.50
21275;DHT22;36472;52.170;20.884;2024-02-26T14:08:43;33.40;34.70
21275;DHT22;36472;52.170;20.884;2024-02-26T14:11:12;33.40;34.70
21275;DHT22;36472;52.170;20.884;2024-02-26T14:13:42;33.50;34.40
21275;DHT22;36472;52.170;20.884;2024-02-26T14:20:46;33.30;34.30
21275;DHT22;36472;52.170;20.884;2024-02-26T14:23:15;33.40;35.40
21275;DHT22;36472;52.170;20.884;2024-02-26T14:25:45;33.20;34.70
21275;DHT22;36472;52.170;20.884;2024-02-26T14:28:14;33.20;35.00
21275;DHT22;36472;52.170;20.884;2024-02-26T14:30:52;33.30;35.20
21275;DHT22;36472;52.170;20.884;2024-02-26T14:37:54;33.20;35.20
21275;DHT22;36472;52.170;20.884;2024-02-26T14:40:28;33.30;35.40
21275;DHT22;36472;52.170;20.884;2024-02-26T14:42:57;33.30;35.50
21275;DHT22;36472;52.170;20.884;2024-02-26T14:45:27;33.20;35.60
21275;DHT22;36472;52.170;20.884;2024-02-26T14:47:57;33.30;35.70
21275;DHT22;36472;52.170;20.884;2024-02-26T14:50:26;33.20;35.60
21275;DHT22;36472;52.170;20.884;2024-02-26T14:52:56;33.20;35.90
21275;DHT22;36472;52.170;20.884;2024-02-26T14:55:25;33.30;35.90
21275;DHT22;36472;52.170;20.884;2024-02-26T14:57:55;33.20;35.80
21275;DHT22;36472;52.170;20.884;2024-02-26T15:00:24;33.20;36.00
21275;DHT22;36472;52.170;20.884;2024-02-26T15:02:53;33.30;36.00
21275;DHT22;36472;52.170;20.884;2024-02-26T15:09:55;33.30;36.00
21275;DHT22;36472;52.170;20.884;2024-02-26T15:12:27;33.30;36.00
21275;DHT22;36472;52.170;20.884;2024-02-26T15:14:59;33.30;36.20
21275;DHT22;36472;52.170;20.884;2024-02-26T15:17:28;33.20;36.20
21275;DHT22;36472;52.170;20.884;2024-02-26T15:20:00;33.20;36.40
21275;DHT22;36472;52.170;20.884;2024-02-26T15:22:30;33.10;36.30
21275;DHT22;36472;52.170;20.884;2024-02-26T15:25:01;33.20;36.60
21275;DHT22;36472;52.170;20.884;2024-02-26T15:27:30;33.20;36.50
21275;DHT22;36472;52.170;20.884;2024-02-26T15:29:59;33.20;36.60
21275;DHT22;36472;52.170;20.884;2024-02-26T15:32:30;33.20;36.60
21275;DHT22;36472;52.170;20.884;2024-02-26T15:34:59;33.10;36.60
21275;DHT22;36472;52.170;20.884;2024-02-26T15:37:28;33.00;36.60
21275;DHT22;36472;52.170;20.884;2024-02-26T15:39:58;33.00;36.70
21275;DHT22;36472;52.170;20.884;2024-02-26T15:47:00;33.00;36.80
21275;DHT22;36472;52.170;20.884;2024-02-26T15:49:29;33.00;36.90
21275;DHT22;36472;52.170;20.884;2024-02-26T15:51:59;33.00;36.90
21275;DHT22;36472;52.170;20.884;2024-02-26T15:54:27;33.00;36.90
21275;DHT22;36472;52.170;20.884;2024-02-26T15:56:57;33.00;36.80
21275;DHT22;36472;52.170;20.884;2024-02-26T15:59:26;32.90;36.90
21275;DHT22;36472;52.170;20.884;2024-02-26T16:01:55;33.00;37.00
21275;DHT22;36472;52.170;20.884;2024-02-26T16:04:25;32.90;37.00